CheckWX is a tool to help pilots better visualize weather data.  It is not intended as a substitute for an official pre-flight weather briefing.

20:11:18 UTC

KTNU METAR
Newton Municipal-Earl Johnson Field Airport
Newton, Iowa, USA
Current

16 mins ago

KTNU 231955Z AUTO 06012KT 10SM CLR 18/03 A3005 RMK AO2
Observed
Apr-23 @ 19:55 UTC
Wind
  • 060° at 12 KTS
Visibility
10 SM
Flight Rules
VFR
Cloud Levels
  • Clear skies
Temperature
18°C / 64°F
Dewpoint
C / 37°F
Humidity
37%
Altimeter
30.05" Hg
Pressure
1017.62 hPa
Previous

36 mins ago

KTNU 231935Z AUTO 07009G16KT 10SM CLR 18/03 A3006 RMK AO2
Observed
Apr-23 @ 19:35 UTC
Wind
  • 070° at 9 KTS
  • Gusting to 16 KTS
Visibility
10 SM
Flight Rules
VFR
Cloud Levels
  • Clear skies
Temperature
18°C / 64°F
Dewpoint
C / 37°F
Humidity
37%
Altimeter
30.06" Hg
Pressure
1017.92 hPa
Previous

56 mins ago

KTNU 231915Z AUTO 06011G18KT 10SM CLR 17/04 A3006 RMK AO2
Observed
Apr-23 @ 19:15 UTC
Wind
  • 060° at 11 KTS
  • Gusting to 18 KTS
Visibility
10 SM
Flight Rules
VFR
Cloud Levels
  • Clear skies
Temperature
17°C / 63°F
Dewpoint
C / 39°F
Humidity
42%
Altimeter
30.06" Hg
Pressure
1017.92 hPa